sensor_id;sensor_type;location;lat;lon;timestamp;pressure;altitude;pressure_sealevel;temperature;humidity
76374;BME280;65197;50.164;8.012;2023-03-01T00:01:14;96475.31;;;-4.74;88.51
76374;BME280;65197;50.164;8.012;2023-03-01T00:03:40;96478.78;;;-4.69;88.56
76374;BME280;65197;50.164;8.012;2023-03-01T00:06:05;96479.63;;;-4.68;88.34
76374;BME280;65197;50.164;8.012;2023-03-01T00:08:32;96465.28;;;-4.77;88.21
76374;BME280;65197;50.164;8.012;2023-03-01T00:13:34;96464.88;;;-4.92;88.74
76374;BME280;65197;50.164;8.012;2023-03-01T00:16:02;96492.38;;;-4.88;89.15
76374;BME280;65197;50.164;8.012;2023-03-01T00:18:28;96452.78;;;-5.12;89.26
76374;BME280;65197;50.164;8.012;2023-03-01T00:20:54;96489.84;;;-4.89;89.70
76374;BME280;65197;50.164;8.012;2023-03-01T00:23:21;96443.53;;;-5.16;90.14
76374;BME280;65197;50.164;8.012;2023-03-01T00:25:47;96469.72;;;-4.98;89.43
76374;BME280;65197;50.164;8.012;2023-03-01T00:28:14;96481.47;;;-4.93;89.90
76374;BME280;65197;50.164;8.012;2023-03-01T00:30:39;96479.13;;;-4.87;89.61
76374;BME280;65197;50.164;8.012;2023-03-01T00:33:05;96473.06;;;-4.96;89.59
76374;BME280;65197;50.164;8.012;2023-03-01T00:35:32;96476.38;;;-4.97;90.16
76374;BME280;65197;50.164;8.012;2023-03-01T00:37:57;96474.44;;;-5.07;90.30
76374;BME280;65197;50.164;8.012;2023-03-01T00:40:27;96474.50;;;-5.04;90.39
76374;BME280;65197;50.164;8.012;2023-03-01T00:42:53;96472.81;;;-5.05;90.51
76374;BME280;65197;50.164;8.012;2023-03-01T00:45:19;96472.81;;;-5.05;90.68
76374;BME280;65197;50.164;8.012;2023-03-01T00:47:44;96443.25;;;-5.26;90.99
76374;BME280;65197;50.164;8.012;2023-03-01T00:50:10;96464.31;;;-5.14;91.02
76374;BME280;65197;50.164;8.012;2023-03-01T00:52:36;96460.97;;;-5.14;91.35
76374;BME280;65197;50.164;8.012;2023-03-01T00:55:02;96464.25;;;-5.17;91.25
76374;BME280;65197;50.164;8.012;2023-03-01T00:57:28;96447.72;;;-5.15;91.57
76374;BME280;65197;50.164;8.012;2023-03-01T00:59:54;96432.78;;;-5.15;91.22
76374;BME280;65197;50.164;8.012;2023-03-01T01:02:19;96455.53;;;-5.01;90.84
76374;BME280;65197;50.164;8.012;2023-03-01T01:04:46;96450.59;;;-4.99;90.85
76374;BME280;65197;50.164;8.012;2023-03-01T01:07:11;96411.84;;;-5.23;91.14
76374;BME280;65197;50.164;8.012;2023-03-01T01:09:37;96411.06;;;-5.22;91.33
76374;BME280;65197;50.164;8.012;2023-03-01T01:12:03;96414.41;;;-5.20;90.93
76374;BME280;65197;50.164;8.012;2023-03-01T01:14:28;96419.59;;;-5.12;90.95
76374;BME280;65197;50.164;8.012;2023-03-01T01:16:54;96416.19;;;-5.16;90.90
76374;BME280;65197;50.164;8.012;2023-03-01T01:19:20;96414.66;;;-5.10;91.17
76374;BME280;65197;50.164;8.012;2023-03-01T01:21:45;96433.94;;;-5.03;90.73
76374;BME280;65197;50.164;8.012;2023-03-01T01:24:11;96428.16;;;-5.02;91.57
76374;BME280;65197;50.164;8.012;2023-03-01T01:26:37;96441.44;;;-5.00;91.74
76374;BME280;65197;50.164;8.012;2023-03-01T01:29:04;96427.50;;;-4.95;90.90
76374;BME280;65197;50.164;8.012;2023-03-01T01:31:31;96427.47;;;-4.97;90.98
76374;BME280;65197;50.164;8.012;2023-03-01T01:33:57;96399.66;;;-5.14;91.48
76374;BME280;65197;50.164;8.012;2023-03-01T01:36:23;96419.13;;;-4.99;91.38
76374;BME280;65197;50.164;8.012;2023-03-01T01:38:48;96416.59;;;-5.00;91.76
76374;BME280;65197;50.164;8.012;2023-03-01T01:41:14;96409.94;;;-5.01;91.50
76374;BME280;65197;50.164;8.012;2023-03-01T01:43:48;96374.78;;;-5.14;91.49
76374;BME280;65197;50.164;8.012;2023-03-01T01:46:33;96399.25;;;-4.97;91.11
76374;BME280;65197;50.164;8.012;2023-03-01T01:49:10;96408.56;;;-4.90;91.25
76374;BME280;65197;50.164;8.012;2023-03-01T01:51:40;96404.38;;;-4.91;91.13
76374;BME280;65197;50.164;8.012;2023-03-01T01:54:18;96401.09;;;-4.90;90.99
76374;BME280;65197;50.164;8.012;2023-03-01T01:56:50;96390.88;;;-5.01;91.14
76374;BME280;65197;50.164;8.012;2023-03-01T01:59:18;96398.69;;;-4.87;90.92
76374;BME280;65197;50.164;8.012;2023-03-01T02:01:44;96374.41;;;-4.97;91.16
76374;BME280;65197;50.164;8.012;2023-03-01T02:04:09;96388.50;;;-4.96;91.53
76374;BME280;65197;50.164;8.012;2023-03-01T02:06:41;96397.00;;;-4.88;91.64
76374;BME280;65197;50.164;8.012;2023-03-01T02:09:14;96404.50;;;-4.87;91.44
76374;BME280;65197;50.164;8.012;2023-03-01T02:11:41;96390.50;;;-4.83;91.09
76374;BME280;65197;50.164;8.012;2023-03-01T02:14:06;96363.50;;;-5.02;91.08
76374;BME280;65197;50.164;8.012;2023-03-01T02:16:32;96386.41;;;-4.81;90.52
76374;BME280;65197;50.164;8.012;2023-03-01T02:18:58;96402.31;;;-4.76;90.60
76374;BME280;65197;50.164;8.012;2023-03-01T02:21:33;96393.94;;;-4.78;90.89
76374;BME280;65197;50.164;8.012;2023-03-01T02:24:39;96319.94;;;-5.20;90.47
76374;BME280;65197;50.164;8.012;2023-03-01T02:26:57;96372.00;;;-4.94;90.29
76374;BME280;65197;50.164;8.012;2023-03-01T02:29:24;96358.56;;;-4.99;90.83
76374;BME280;65197;50.164;8.012;2023-03-01T02:31:51;96388.03;;;-4.83;90.64
76374;BME280;65197;50.164;8.012;2023-03-01T02:34:23;96369.41;;;-4.99;90.91
76374;BME280;65197;50.164;8.012;2023-03-01T02:37:13;96388.63;;;-4.92;91.12
76374;BME280;65197;50.164;8.012;2023-03-01T02:39:47;96369.91;;;-5.10;91.52
76374;BME280;65197;50.164;8.012;2023-03-01T02:42:16;96389.19;;;-5.02;92.16
76374;BME280;65197;50.164;8.012;2023-03-01T02:44:45;96364.06;;;-5.13;92.43
76374;BME280;65197;50.164;8.012;2023-03-01T02:47:10;96373.34;;;-5.05;92.14
76374;BME280;65197;50.164;8.012;2023-03-01T02:49:37;96380.78;;;-5.07;92.42
76374;BME280;65197;50.164;8.012;2023-03-01T02:52:21;96377.50;;;-5.06;92.26
76374;BME280;65197;50.164;8.012;2023-03-01T02:54:55;96339.75;;;-5.23;92.40
76374;BME280;65197;50.164;8.012;2023-03-01T02:57:24;96368.38;;;-5.05;92.56
76374;BME280;65197;50.164;8.012;2023-03-01T02:59:54;96354.16;;;-5.11;92.23
76374;BME280;65197;50.164;8.012;2023-03-01T03:02:23;96328.13;;;-5.24;92.62
76374;BME280;65197;50.164;8.012;2023-03-01T03:05:10;96346.09;;;-5.02;92.31
76374;BME280;65197;50.164;8.012;2023-03-01T03:07:38;96340.16;;;-5.07;92.32
76374;BME280;65197;50.164;8.012;2023-03-01T03:10:06;96346.81;;;-5.06;92.28
76374;BME280;65197;50.164;8.012;2023-03-01T03:12:31;96336.88;;;-5.06;92.37
76374;BME280;65197;50.164;8.012;2023-03-01T03:14:57;96333.56;;;-5.05;92.50
76374;BME280;65197;50.164;8.012;2023-03-01T03:17:22;96319.22;;;-5.16;92.89
76374;BME280;65197;50.164;8.012;2023-03-01T03:19:48;96330.97;;;-5.10;92.22
76374;BME280;65197;50.164;8.012;2023-03-01T03:22:14;96330.88;;;-5.13;93.18
76374;BME280;65197;50.164;8.012;2023-03-01T03:24:39;96329.03;;;-5.22;93.74
76374;BME280;65197;50.164;8.012;2023-03-01T03:27:05;96309.53;;;-5.38;94.16
76374;BME280;65197;50.164;8.012;2023-03-01T03:29:31;96328.13;;;-5.24;94.15
76374;BME280;65197;50.164;8.012;2023-03-01T03:31:57;96308.81;;;-5.34;94.09
76374;BME280;65197;50.164;8.012;2023-03-01T03:34:22;96311.16;;;-5.40;94.31
76374;BME280;65197;50.164;8.012;2023-03-01T03:36:52;96323.72;;;-5.34;94.24
76374;BME280;65197;50.164;8.012;2023-03-01T03:39:22;96326.97;;;-5.37;94.53
76374;BME280;65197;50.164;8.012;2023-03-01T03:41:47;96265.75;;;-5.66;94.68
76374;BME280;65197;50.164;8.012;2023-03-01T03:44:13;96317.72;;;-5.42;94.71
76374;BME280;65197;50.164;8.012;2023-03-01T03:46:38;96302.50;;;-5.54;95.01
76374;BME280;65197;50.164;8.012;2023-03-01T03:49:03;96256.31;;;-5.78;94.92
76374;BME280;65197;50.164;8.012;2023-03-01T03:51:29;96295.81;;;-5.55;95.10
76374;BME280;65197;50.164;8.012;2023-03-01T03:53:54;96303.50;;;-5.48;95.36
76374;BME280;65197;50.164;8.012;2023-03-01T03:56:20;96290.94;;;-5.52;95.62
76374;BME280;65197;50.164;8.012;2023-03-01T03:58:45;96282.44;;;-5.60;95.60
76374;BME280;65197;50.164;8.012;2023-03-01T04:01:10;96292.44;;;-5.59;95.84
76374;BME280;65197;50.164;8.012;2023-03-01T04:03:36;96291.66;;;-5.56;95.58
76374;BME280;65197;50.164;8.012;2023-03-01T04:06:02;96242.81;;;-5.88;95.65
76374;BME280;65197;50.164;8.012;2023-03-01T04:08:28;96282.53;;;-5.57;95.49
76374;BME280;65197;50.164;8.012;2023-03-01T04:10:59;96285.88;;;-5.55;95.81
76374;BME280;65197;50.164;8.012;2023-03-01T04:13:25;96279.09;;;-5.63;95.45
76374;BME280;65197;50.164;8.012;2023-03-01T04:15:52;96295.81;;;-5.55;95.42
76374;BME280;65197;50.164;8.012;2023-03-01T04:18:19;96291.81;;;-5.50;95.78
76374;BME280;65197;50.164;8.012;2023-03-01T04:20:46;96272.28;;;-5.70;96.00
76374;BME280;65197;50.164;8.012;2023-03-01T04:23:16;96299.22;;;-5.53;95.96
76374;BME280;65197;50.164;8.012;2023-03-01T04:25:55;96279.72;;;-5.70;95.56
76374;BME280;65197;50.164;8.012;2023-03-01T04:30:50;96297.19;;;-5.67;95.86
76374;BME280;65197;50.164;8.012;2023-03-01T04:33:16;96288.06;;;-5.68;96.37
76374;BME280;65197;50.164;8.012;2023-03-01T04:35:41;96293.66;;;-5.75;96.66
76374;BME280;65197;50.164;8.012;2023-03-01T04:38:07;96270.09;;;-5.89;96.41
76374;BME280;65197;50.164;8.012;2023-03-01T04:40:33;96291.91;;;-5.79;97.64
76374;BME280;65197;50.164;8.012;2023-03-01T04:42:59;96294.22;;;-5.85;97.85
76374;BME280;65197;50.164;8.012;2023-03-01T04:45:24;96248.56;;;-5.90;97.06
76374;BME280;65197;50.164;8.012;2023-03-01T04:47:50;96282.19;;;-5.71;96.79
76374;BME280;65197;50.164;8.012;2023-03-01T04:50:18;96284.31;;;-5.53;96.34
76374;BME280;65197;50.164;8.012;2023-03-01T04:52:48;96284.13;;;-5.59;96.20
76374;BME280;65197;50.164;8.012;2023-03-01T04:55:14;96285.16;;;-5.53;96.13
76374;BME280;65197;50.164;8.012;2023-03-01T04:57:39;96289.19;;;-5.56;96.20
76374;BME280;65197;50.164;8.012;2023-03-01T05:00:07;96280.63;;;-5.68;96.00
76374;BME280;65197;50.164;8.012;2023-03-01T05:02:53;96284.09;;;-5.61;96.79
76374;BME280;65197;50.164;8.012;2023-03-01T05:05:21;96283.22;;;-5.63;96.20
76374;BME280;65197;50.164;8.012;2023-03-01T05:07:46;96290.63;;;-5.65;96.77
76374;BME280;65197;50.164;8.012;2023-03-01T05:10:12;96274.56;;;-5.77;97.05
76374;BME280;65197;50.164;8.012;2023-03-01T05:12:37;96273.78;;;-5.75;97.19
76374;BME280;65197;50.164;8.012;2023-03-01T05:15:04;96278.03;;;-5.71;97.31
76374;BME280;65197;50.164;8.012;2023-03-01T05:17:32;96280.44;;;-5.74;97.35
76374;BME280;65197;50.164;8.012;2023-03-01T05:19:58;96270.25;;;-5.83;97.28
76374;BME280;65197;50.164;8.012;2023-03-01T05:22:25;96271.03;;;-5.85;97.32
76374;BME280;65197;50.164;8.012;2023-03-01T05:24:50;96285.41;;;-5.74;97.54
76374;BME280;65197;50.164;8.012;2023-03-01T05:27:15;96278.84;;;-5.72;97.23
76374;BME280;65197;50.164;8.012;2023-03-01T05:29:41;96257.13;;;-5.79;97.47
76374;BME280;65197;50.164;8.012;2023-03-01T05:32:06;96267.38;;;-5.67;97.51
76374;BME280;65197;50.164;8.012;2023-03-01T05:34:35;96241.38;;;-5.79;96.98
76374;BME280;65197;50.164;8.012;2023-03-01T05:37:02;96269.16;;;-5.63;96.61
76374;BME280;65197;50.164;8.012;2023-03-01T05:39:28;96257.47;;;-5.67;96.51
76374;BME280;65197;50.164;8.012;2023-03-01T05:41:59;96271.44;;;-5.70;96.87
76374;BME280;65197;50.164;8.012;2023-03-01T05:44:26;96237.19;;;-5.82;96.77
76374;BME280;65197;50.164;8.012;2023-03-01T05:46:52;96258.97;;;-5.72;96.94
76374;BME280;65197;50.164;8.012;2023-03-01T05:49:17;96268.91;;;-5.72;97.36
76374;BME280;65197;50.164;8.012;2023-03-01T05:51:48;96273.78;;;-5.75;96.97
76374;BME280;65197;50.164;8.012;2023-03-01T05:54:14;96260.41;;;-5.80;97.49
76374;BME280;65197;50.164;8.012;2023-03-01T05:56:39;96234.31;;;-5.97;97.51
76374;BME280;65197;50.164;8.012;2023-03-01T05:59:05;96262.28;;;-5.73;97.51
76374;BME280;65197;50.164;8.012;2023-03-01T06:01:32;96251.16;;;-5.85;97.38
76374;BME280;65197;50.164;8.012;2023-03-01T06:03:57;96241.84;;;-5.94;97.28
76374;BME280;65197;50.164;8.012;2023-03-01T06:06:23;96267.00;;;-5.82;98.04
76374;BME280;65197;50.164;8.012;2023-03-01T06:08:50;96262.03;;;-5.82;98.15
76374;BME280;65197;50.164;8.012;2023-03-01T06:11:15;96251.84;;;-5.91;97.55
76374;BME280;65197;50.164;8.012;2023-03-01T06:13:42;96263.75;;;-5.79;97.74
76374;BME280;65197;50.164;8.012;2023-03-01T06:16:08;96268.00;;;-5.74;97.57
76374;BME280;65197;50.164;8.012;2023-03-01T06:18:34;96270.59;;;-5.71;97.14
76374;BME280;65197;50.164;8.012;2023-03-01T06:20:59;96252.16;;;-5.79;97.03
76374;BME280;65197;50.164;8.012;2023-03-01T06:23:25;96270.91;;;-5.58;96.25
76374;BME280;65197;50.164;8.012;2023-03-01T06:25:50;96280.84;;;-5.58;96.27
76374;BME280;65197;50.164;8.012;2023-03-01T06:28:16;96269.97;;;-5.64;96.00
76374;BME280;65197;50.164;8.012;2023-03-01T06:30:41;96248.13;;;-5.75;96.41
76374;BME280;65197;50.164;8.012;2023-03-01T06:33:07;96264.25;;;-5.59;96.76
76374;BME280;65197;50.164;8.012;2023-03-01T06:35:33;96265.06;;;-5.60;96.58
76374;BME280;65197;50.164;8.012;2023-03-01T06:38:00;96243.19;;;-5.74;96.32
76374;BME280;65197;50.164;8.012;2023-03-01T06:40:26;96235.00;;;-5.70;96.08
76374;BME280;65197;50.164;8.012;2023-03-01T06:42:52;96210.75;;;-5.80;95.80
76374;BME280;65197;50.164;8.012;2023-03-01T06:45:19;96236.88;;;-5.63;95.87
76374;BME280;65197;50.164;8.012;2023-03-01T06:47:46;96250.50;;;-5.47;95.56
76374;BME280;65197;50.164;8.012;2023-03-01T06:50:11;96233.59;;;-5.60;95.71
76374;BME280;65197;50.164;8.012;2023-03-01T06:52:37;96234.66;;;-5.50;95.46
76374;BME280;65197;50.164;8.012;2023-03-01T06:55:03;96255.88;;;-5.31;95.17
76374;BME280;65197;50.164;8.012;2023-03-01T06:57:29;96243.47;;;-5.30;94.51
76374;BME280;65197;50.164;8.012;2023-03-01T06:59:55;96249.22;;;-4.96;93.52
76374;BME280;65197;50.164;8.012;2023-03-01T07:02:21;96259.50;;;-4.45;91.82
76374;BME280;65197;50.164;8.012;2023-03-01T07:04:49;96226.06;;;-4.17;89.23
76374;BME280;65197;50.164;8.012;2023-03-01T07:07:14;96260.41;;;-3.56;86.90
76374;BME280;65197;50.164;8.012;2023-03-01T07:09:40;96240.59;;;-3.50;85.36
76374;BME280;65197;50.164;8.012;2023-03-01T07:12:05;96235.13;;;-3.29;84.75
76374;BME280;65197;50.164;8.012;2023-03-01T07:14:31;96241.09;;;-3.20;84.31
76374;BME280;65197;50.164;8.012;2023-03-01T07:16:56;96237.00;;;-3.16;83.73
76374;BME280;65197;50.164;8.012;2023-03-01T07:19:22;96239.16;;;-2.86;83.03
76374;BME280;65197;50.164;8.012;2023-03-01T07:21:47;96245.41;;;-2.57;81.42
76374;BME280;65197;50.164;8.012;2023-03-01T07:24:13;96253.03;;;-2.47;80.74
76374;BME280;65197;50.164;8.012;2023-03-01T07:26:39;96231.41;;;-2.45;80.50
76374;BME280;65197;50.164;8.012;2023-03-01T07:29:06;96252.38;;;-2.34;79.37
76374;BME280;65197;50.164;8.012;2023-03-01T07:31:31;96227.34;;;-2.37;78.44
76374;BME280;65197;50.164;8.012;2023-03-01T07:33:57;96224.25;;;-2.21;77.34
76374;BME280;65197;50.164;8.012;2023-03-01T07:36:23;96189.16;;;-2.27;76.92
76374;BME280;65197;50.164;8.012;2023-03-01T07:38:49;96256.50;;;-1.68;76.67
76374;BME280;65197;50.164;8.012;2023-03-01T07:41:15;96249.44;;;-1.20;74.71
76374;BME280;65197;50.164;8.012;2023-03-01T07:43:40;96221.06;;;-1.27;73.70
76374;BME280;65197;50.164;8.012;2023-03-01T07:46:05;96230.63;;;-0.77;73.06
76374;BME280;65197;50.164;8.012;2023-03-01T07:48:32;96229.16;;;-0.44;70.05
76374;BME280;65197;50.164;8.012;2023-03-01T07:51:02;96227.63;;;-0.15;68.22
76374;BME280;65197;50.164;8.012;2023-03-01T07:53:28;96231.66;;;-0.43;69.28
76374;BME280;65197;50.164;8.012;2023-03-01T07:56:04;96220.97;;;-0.16;68.19
76374;BME280;65197;50.164;8.012;2023-03-01T07:58:30;96226.06;;;0.09;67.02
76374;BME280;65197;50.164;8.012;2023-03-01T08:00:57;96244.53;;;0.29;66.79
76374;BME280;65197;50.164;8.012;2023-03-01T08:03:25;96216.94;;;0.32;65.68
76374;BME280;65197;50.164;8.012;2023-03-01T08:05:51;96241.13;;;0.18;66.66
76374;BME280;65197;50.164;8.012;2023-03-01T08:08:16;96209.41;;;0.32;65.36
76374;BME280;65197;50.164;8.012;2023-03-01T08:10:41;96245.47;;;0.75;64.68
76374;BME280;65197;50.164;8.012;2023-03-01T08:13:07;96194.41;;;1.27;62.69
76374;BME280;65197;50.164;8.012;2023-03-01T08:15:32;96211.16;;;0.52;63.20
76374;BME280;65197;50.164;8.012;2023-03-01T08:17:57;96217.84;;;1.44;62.15
76374;BME280;65197;50.164;8.012;2023-03-01T08:20:23;96232.06;;;1.59;62.16
76374;BME280;65197;50.164;8.012;2023-03-01T08:22:48;96229.41;;;2.10;60.39
76374;BME280;65197;50.164;8.012;2023-03-01T08:25:14;96238.63;;;2.08;59.06
76374;BME280;65197;50.164;8.012;2023-03-01T08:27:39;96240.38;;;1.90;60.08
76374;BME280;65197;50.164;8.012;2023-03-01T08:30:05;96204.22;;;2.16;58.26
76374;BME280;65197;50.164;8.012;2023-03-01T08:32:35;96237.09;;;1.55;59.41
76374;BME280;65197;50.164;8.012;2023-03-01T08:35:01;96227.78;;;1.99;59.72
76374;BME280;65197;50.164;8.012;2023-03-01T08:37:26;96206.75;;;2.13;58.91
76374;BME280;65197;50.164;8.012;2023-03-01T08:39:52;96216.59;;;2.49;57.28
76374;BME280;65197;50.164;8.012;2023-03-01T08:42:19;96221.78;;;2.23;57.45
76374;BME280;65197;50.164;8.012;2023-03-01T08:44:45;96175.84;;;1.80;58.57
76374;BME280;65197;50.164;8.012;2023-03-01T08:47:10;96198.09;;;2.60;57.00
76374;BME280;65197;50.164;8.012;2023-03-01T08:49:36;96194.72;;;2.62;57.15
76374;BME280;65197;50.164;8.012;2023-03-01T08:52:02;96206.03;;;1.74;58.99
76374;BME280;65197;50.164;8.012;2023-03-01T08:54:27;96213.47;;;2.03;59.02
76374;BME280;65197;50.164;8.012;2023-03-01T08:56:52;96210.69;;;2.60;57.60
76374;BME280;65197;50.164;8.012;2023-03-01T08:59:18;96214.41;;;1.79;59.15
76374;BME280;65197;50.164;8.012;2023-03-01T09:01:43;96213.63;;;1.60;60.80
76374;BME280;65197;50.164;8.012;2023-03-01T09:04:10;96200.25;;;1.37;61.95
76374;BME280;65197;50.164;8.012;2023-03-01T09:06:36;96185.59;;;2.47;59.81
76374;BME280;65197;50.164;8.012;2023-03-01T09:09:03;96196.28;;;2.80;56.68
76374;BME280;65197;50.164;8.012;2023-03-01T09:11:29;96176.84;;;2.94;55.89
76374;BME280;65197;50.164;8.012;2023-03-01T09:13:55;96190.47;;;2.67;56.60
76374;BME280;65197;50.164;8.012;2023-03-01T09:16:22;96202.13;;;2.85;56.45
76374;BME280;65197;50.164;8.012;2023-03-01T09:18:54;96199.38;;;3.13;55.73
76374;BME280;65197;50.164;8.012;2023-03-01T09:21:21;96193.44;;;3.20;55.58
76374;BME280;65197;50.164;8.012;2023-03-01T09:23:48;96193.50;;;3.14;55.02
76374;BME280;65197;50.164;8.012;2023-03-01T09:26:19;96178.91;;;2.43;56.64
76374;BME280;65197;50.164;8.012;2023-03-01T09:28:47;96169.94;;;1.92;58.16
76374;BME280;65197;50.164;8.012;2023-03-01T09:31:14;96183.81;;;2.62;57.57
76374;BME280;65197;50.164;8.012;2023-03-01T09:33:41;96196.63;;;2.23;58.52
76374;BME280;65197;50.164;8.012;2023-03-01T09:36:16;96187.50;;;2.02;58.48
76374;BME280;65197;50.164;8.012;2023-03-01T09:38:42;96186.75;;;1.85;59.95
76374;BME280;65197;50.164;8.012;2023-03-01T09:46:50;96197.59;;;1.99;58.79
76374;BME280;65197;50.164;8.012;2023-03-01T09:49:22;96196.03;;;1.56;60.98
76374;BME280;65197;50.164;8.012;2023-03-01T09:54:30;96147.28;;;1.93;60.06
76374;BME280;65197;50.164;8.012;2023-03-01T09:57:17;96187.44;;;2.16;58.52
76374;BME280;65197;50.164;8.012;2023-03-01T10:00:03;96174.78;;;2.33;58.02
76374;BME280;65197;50.164;8.012;2023-03-01T10:05:36;96175.47;;;2.53;57.49
76374;BME280;65197;50.164;8.012;2023-03-01T10:10:43;96172.38;;;3.28;54.70
76374;BME280;65197;50.164;8.012;2023-03-01T10:16:04;96164.97;;;3.09;54.83
76374;BME280;65197;50.164;8.012;2023-03-01T10:18:32;96170.72;;;3.24;54.92
76374;BME280;65197;50.164;8.012;2023-03-01T10:21:00;96174.44;;;2.84;55.75
76374;BME280;65197;50.164;8.012;2023-03-01T10:23:28;96144.69;;;2.13;57.26
76374;BME280;65197;50.164;8.012;2023-03-01T10:26:17;96156.00;;;2.78;56.55
76374;BME280;65197;50.164;8.012;2023-03-01T10:29:09;96164.44;;;2.73;56.97
76374;BME280;65197;50.164;8.012;2023-03-01T10:31:44;96136.41;;;3.10;56.04
76374;BME280;65197;50.164;8.012;2023-03-01T10:34:26;96154.88;;;3.12;55.59
76374;BME280;65197;50.164;8.012;2023-03-01T10:36:56;96154.00;;;3.16;55.92
76374;BME280;65197;50.164;8.012;2023-03-01T10:39:24;96143.88;;;3.20;55.54
76374;BME280;65197;50.164;8.012;2023-03-01T10:44:46;96155.78;;;3.86;54.76
76374;BME280;65197;50.164;8.012;2023-03-01T10:49:57;96143.56;;;4.22;52.44
76374;BME280;65197;50.164;8.012;2023-03-01T10:52:34;96126.75;;;3.50;53.25
76374;BME280;65197;50.164;8.012;2023-03-01T10:55:23;96139.38;;;3.51;53.84
76374;BME280;65197;50.164;8.012;2023-03-01T10:57:49;96118.03;;;3.77;52.75
76374;BME280;65197;50.164;8.012;2023-03-01T11:00:22;96135.34;;;3.32;53.54
76374;BME280;65197;50.164;8.012;2023-03-01T11:05:23;96127.28;;;3.78;53.02
76374;BME280;65197;50.164;8.012;2023-03-01T11:07:57;96118.22;;;3.63;53.00
76374;BME280;65197;50.164;8.012;2023-03-01T11:10:31;96091.56;;;4.08;52.01
76374;BME280;65197;50.164;8.012;2023-03-01T11:13:16;96123.41;;;4.16;51.40
76374;BME280;65197;50.164;8.012;2023-03-01T11:15:42;96109.00;;;3.61;51.54
76374;BME280;65197;50.164;8.012;2023-03-01T11:18:22;96118.94;;;3.73;52.15
76374;BME280;65197;50.164;8.012;2023-03-01T11:20:50;96122.19;;;3.81;53.12
76374;BME280;65197;50.164;8.012;2023-03-01T11:23:18;96117.28;;;3.72;54.13
76374;BME280;65197;50.164;8.012;2023-03-01T11:25:54;96099.94;;;4.11;51.35
76374;BME280;65197;50.164;8.012;2023-03-01T11:28:21;96111.75;;;4.08;51.25
76374;BME280;65197;50.164;8.012;2023-03-01T11:31:01;96111.97;;;5.04;50.70
76374;BME280;65197;50.164;8.012;2023-03-01T11:38:56;96079.44;;;4.32;51.81
76374;BME280;65197;50.164;8.012;2023-03-01T11:41:30;96107.09;;;3.79;51.83
76374;BME280;65197;50.164;8.012;2023-03-01T11:44:21;96103.69;;;3.82;50.99
76374;BME280;65197;50.164;8.012;2023-03-01T11:47:51;96108.34;;;4.13;51.52
76374;BME280;65197;50.164;8.012;2023-03-01T11:50:28;96105.72;;;3.52;52.76
76374;BME280;65197;50.164;8.012;2023-03-01T11:55:51;96080.03;;;4.48;50.39
76374;BME280;65197;50.164;8.012;2023-03-01T11:58:41;96072.31;;;4.03;51.41
76374;BME280;65197;50.164;8.012;2023-03-01T12:04:35;96081.31;;;4.21;51.04
76374;BME280;65197;50.164;8.012;2023-03-01T12:10:05;96069.72;;;4.07;50.77
76374;BME280;65197;50.164;8.012;2023-03-01T12:20:35;96057.34;;;4.96;48.16
76374;BME280;65197;50.164;8.012;2023-03-01T12:37:03;96022.69;;;5.02;48.33
76374;BME280;65197;50.164;8.012;2023-03-01T12:40:03;96036.41;;;4.89;47.49
76374;BME280;65197;50.164;8.012;2023-03-01T12:48:26;96003.81;;;4.75;47.53
76374;BME280;65197;50.164;8.012;2023-03-01T12:50:59;96016.78;;;4.55;46.90
76374;BME280;65197;50.164;8.012;2023-03-01T12:53:31;96012.69;;;4.96;46.32
76374;BME280;65197;50.164;8.012;2023-03-01T12:56:23;96008.19;;;4.16;46.72
76374;BME280;65197;50.164;8.012;2023-03-01T13:07:19;96003.97;;;4.17;48.88
76374;BME280;65197;50.164;8.012;2023-03-01T13:10:00;95985.28;;;3.71;49.27
76374;BME280;65197;50.164;8.012;2023-03-01T13:17:46;95990.66;;;4.56;49.15
76374;BME280;65197;50.164;8.012;2023-03-01T13:20:14;95988.22;;;4.53;48.48
76374;BME280;65197;50.164;8.012;2023-03-01T13:22:40;95974.03;;;4.45;48.78
76374;BME280;65197;50.164;8.012;2023-03-01T13:25:15;95992.19;;;4.65;48.22
76374;BME280;65197;50.164;8.012;2023-03-01T13:27:41;95984.19;;;4.88;48.25
76374;BME280;65197;50.164;8.012;2023-03-01T13:35:55;95978.00;;;4.59;48.78
76374;BME280;65197;50.164;8.012;2023-03-01T13:38:48;95956.59;;;4.31;49.16
76374;BME280;65197;50.164;8.012;2023-03-01T13:46:56;95942.47;;;4.69;47.83
76374;BME280;65197;50.164;8.012;2023-03-01T13:49:27;95947.97;;;4.44;48.48
76374;BME280;65197;50.164;8.012;2023-03-01T13:51:54;95953.78;;;3.98;49.96
76374;BME280;65197;50.164;8.012;2023-03-01T13:54:26;95948.78;;;4.45;49.28
76374;BME280;65197;50.164;8.012;2023-03-01T13:56:54;95903.78;;;4.19;48.91
76374;BME280;65197;50.164;8.012;2023-03-01T13:59:21;95929.31;;;4.51;48.82
76374;BME280;65197;50.164;8.012;2023-03-01T14:01:59;95929.63;;;4.33;49.06
76374;BME280;65197;50.164;8.012;2023-03-01T14:04:30;95953.53;;;4.14;49.23
76374;BME280;65197;50.164;8.012;2023-03-01T14:07:19;95955.25;;;4.12;49.55
76374;BME280;65197;50.164;8.012;2023-03-01T14:09:56;95964.22;;;3.74;50.80
76374;BME280;65197;50.164;8.012;2023-03-01T14:15:02;95968.09;;;3.38;52.14
76374;BME280;65197;50.164;8.012;2023-03-01T14:20:32;95916.53;;;3.58;51.20
76374;BME280;65197;50.164;8.012;2023-03-01T14:23:02;95960.09;;;3.68;51.58
76374;BME280;65197;50.164;8.012;2023-03-01T14:25:35;95950.84;;;3.69;51.60
76374;BME280;65197;50.164;8.012;2023-03-01T14:28:39;95947.63;;;3.61;51.48
76374;BME280;65197;50.164;8.012;2023-03-01T14:31:34;95947.63;;;3.61;53.17
76374;BME280;65197;50.164;8.012;2023-03-01T14:34:00;95944.41;;;3.49;52.22
76374;BME280;65197;50.164;8.012;2023-03-01T14:36:30;95931.41;;;3.14;52.98
76374;BME280;65197;50.164;8.012;2023-03-01T14:38:56;95941.50;;;3.14;52.89
76374;BME280;65197;50.164;8.012;2023-03-01T14:41:32;95933.97;;;3.12;52.62
76374;BME280;65197;50.164;8.012;2023-03-01T14:44:06;95941.50;;;3.14;52.30
76374;BME280;65197;50.164;8.012;2023-03-01T14:46:38;95937.41;;;3.05;52.63
76374;BME280;65197;50.164;8.012;2023-03-01T14:49:19;95929.19;;;2.91;53.26
76374;BME280;65197;50.164;8.012;2023-03-01T14:52:02;95918.56;;;2.69;53.17
76374;BME280;65197;50.164;8.012;2023-03-01T14:57:00;95924.56;;;2.55;53.61
76374;BME280;65197;50.164;8.012;2023-03-01T14:59:26;95941.94;;;2.78;53.05
76374;BME280;65197;50.164;8.012;2023-03-01T15:01:53;95937.06;;;2.65;52.37